Hatfield, Arkansas
Current Conditions -  °F | °C
As of 1:15 AM on Thursday 18 Dec 2014 (Local Time) from KMEZ Reporting Station
Overcast Overcast  
Wind Chill: 34°   Ceiling: 1400
Heat Index: 37°   Visibility: 7mi
Dew Point: 36°   Wind: 5mph
Humidity: 93%   Direction: 70°ENE
Pressure: 30.18"   Gusts: NA
Location:  34.49°N, 94.38°W
Report Text: KMEZ 180715Z AUTO 07004KT 7SM SCT005 OVC014 03/02 A3018 RMK AO2
Loading
Personal Weather Stations






























Interactive Weather Map New forecast layout! Learn more

10-Day Weather Forecast

Advertisements
Track Severe Weather on mobile